Terminal Aerodrome Forecast
Issued by NWS

Home | Current Version | Previous Version | Text Only | Print | Product List | Glossary On
Versions: 1 2 3 4 5 6 7 8 9 10 11 12 13 14 15 16 17 18 19 20 21 22 23 24 25 26 27 28 29
896
FTUS46 KSEW 242333
TAFSEA
TAF
KSEA 242333Z 2500/2606 14008KT P6SM VCSH SCT028 BKN040 BKN045
     FM250700 19012KT P6SM -RA OVC035
     FM251000 22019G27KT P6SM -RA OVC020
     FM260000 22014KT P6SM VCSH SCT020 BKN035=

USA.gov is the U.S. government's official web portal to all federal, state and local government web resources and services.